Time;durP1;ratioP1;P1;durP2;ratioP2;P2;SDS_P1;SDS_P2;PMS_P1;PMS_P2;Temp;Humidity;BMP_temperature;BMP_pressure;BME280_temperature;BME280_humidity;BME280_pressure;Samples;Min_cycle;Max_cycle;Signal;HPM_P1;HPM_P2
2021/07/18 04:02:29;;;;;;;;;;;;;;;;;;;;;
2021/07/18 05:24:04;;;;;;;0.10;0.10;;;16.50;99.90;;;;;;4909620;29;20443;-96
2021/07/18 05:27:57;;;;;;;0.50;0.30;;;16.30;99.90;;;;;;4892590;29;20441;-96
2021/07/18 05:45:57;;;;;;;1.73;0.73;;;16.60;99.90;;;;;;4852059;29;20841;-95
2021/07/18 05:51:45;;;;;;;0.80;0.60;;;16.90;99.90;;;;;;4879893;29;20483;-96
2021/07/18 05:54:38;;;;;;;0.10;0.10;;;16.90;99.90;;;;;;4879734;29;20488;-95
2021/07/18 05:57:08;;;;;;;1.30;0.60;;;16.90;99.90;;;;;;4872867;29;20785;-96
2021/07/18 06:03:32;;;;;;;1.00;1.00;;;16.90;99.90;;;;;;4796835;29;20478;-96
2021/07/18 06:06:42;;;;;;;1.10;1.00;;;17.10;99.90;;;;;;4799547;29;20463;-96
2021/07/18 06:09:21;;;;;;;0.30;0.30;;;17.00;99.90;;;;;;4793852;29;20591;-95
2021/07/18 09:29:24;;;;;;;1.20;0.80;;;18.80;99.90;;;;;;4956686;23;20444;-96
2021/07/18 13:40:39;;;;;;;0.30;0.30;;;21.10;99.90;;;;;;5952464;23;20728;31
2021/07/18 14:35:10;;;;;;;0.77;0.60;;;21.80;99.90;;;;;;4837635;29;20437;-96
2021/07/18 14:43:12;;;;;;;0.60;0.40;;;21.00;99.90;;;;;;5613254;23;20918;-93
2021/07/18 14:45:41;;;;;;;0.20;0.20;;;20.80;99.90;;;;;;4864457;29;20441;-95
2021/07/18 14:48:09;;;;;;;0.75;0.40;;;20.70;99.90;;;;;;4868078;29;20438;-96
2021/07/18 14:50:37;;;;;;;0.32;0.32;;;20.70;99.90;;;;;;4876332;29;20441;-95
2021/07/18 14:53:07;;;;;;;1.33;0.55;;;20.60;99.90;;;;;;4873025;29;20453;-96
2021/07/18 14:56:00;;;;;;;0.38;0.38;;;20.60;99.90;;;;;;4876539;29;20491;-96
2021/07/18 14:58:32;;;;;;;0.30;0.30;;;20.60;99.90;;;;;;4876933;29;20457;-96
2021/07/18 15:01:13;;;;;;;1.05;0.82;;;20.70;99.90;;;;;;4866179;29;20438;-95
2021/07/18 15:03:40;;;;;;;0.40;0.40;;;20.70;99.90;;;;;;4873650;29;20437;-95
2021/07/18 15:06:07;;;;;;;1.30;0.40;;;20.70;99.90;;;;;;4851505;29;20434;-96
2021/07/18 15:09:05;;;;;;;0.17;0.17;;;20.70;99.90;;;;;;4867163;29;20441;-96
2021/07/18 15:11:32;;;;;;;0.20;0.20;;;20.70;99.90;;;;;;4866193;29;20528;-96
2021/07/18 15:16:44;;;;;;;0.68;0.68;;;20.90;99.90;;;;;;5233283;23;20464;-96
2021/07/18 15:19:20;;;;;;;2.50;1.37;;;20.90;99.90;;;;;;4866825;29;20840;-96
2021/07/18 15:21:48;;;;;;;0.20;0.20;;;21.20;99.90;;;;;;4869453;29;20461;-94
2021/07/18 15:24:15;;;;;;;0.43;0.43;;;22.20;99.90;;;;;;4863650;29;20438;-93
2021/07/18 15:26:42;;;;;;;0.30;0.30;;;23.20;99.90;;;;;;4864381;29;20434;-92
2021/07/18 15:29:12;;;;;;;0.30;0.30;;;24.30;99.90;;;;;;4863577;29;20434;-95
2021/07/18 15:31:40;;;;;;;0.20;0.20;;;25.30;99.90;;;;;;4864415;29;20436;-94
2021/07/18 15:34:07;;;;;;;0.47;0.40;;;25.70;99.90;;;;;;4864033;29;21022;-94
2021/07/18 15:36:34;;;;;;;0.60;0.50;;;25.60;99.90;;;;;;4864246;29;20441;-94
2021/07/18 15:39:03;;;;;;;0.40;0.40;;;25.30;99.90;;;;;;4862872;29;20499;-94
2021/07/18 15:41:30;;;;;;;0.45;0.45;;;25.40;99.90;;;;;;4880203;29;20947;-93
2021/07/18 15:44:01;;;;;;;11.82;5.75;;;25.40;99.90;;;;;;4870211;29;20441;-93
2021/07/18 15:46:52;;;;;;;9.98;6.13;;;24.90;99.90;;;;;;4871401;29;20438;-96
2021/07/18 15:49:22;;;;;;;11.05;6.20;;;24.30;99.90;;;;;;4877588;29;20438;-95
2021/07/18 15:52:08;;;;;;;9.02;5.90;;;23.80;99.90;;;;;;4875028;29;20437;-96
2021/07/18 15:54:41;;;;;;;10.88;5.88;;;23.90;99.90;;;;;;4876376;29;20468;-94
2021/07/18 15:57:12;;;;;;;17.50;5.88;;;24.50;99.90;;;;;;4874800;29;20472;-96
2021/07/18 15:59:42;;;;;;;8.95;5.70;;;24.80;99.90;;;;;;4857591;29;20797;-94
2021/07/18 16:44:15;;;;;;;11.43;6.90;;;21.80;99.90;;;;;;4843381;29;20448;-96
2021/07/18 16:46:42;;;;;;;13.15;7.32;;;21.60;99.90;;;;;;4854079;29;20436;-96
2021/07/18 16:50:00;;;;;;;11.73;7.43;;;21.30;99.90;;;;;;4853276;29;20530;-94
2021/07/18 17:08:17;;;;;;;17.42;9.80;;;19.60;99.90;;;;;;4892611;23;20434;-94
2021/07/18 17:10:48;;;;;;;15.55;10.52;;;19.30;99.90;;;;;;5311766;23;20448;-96
2021/07/18 17:13:18;;;;;;;16.00;10.47;;;19.20;99.90;;;;;;4891843;29;20440;-96
2021/07/18 17:16:00;;;;;;;14.88;10.95;;;19.10;99.90;;;;;;4895763;23;20429;-93
2021/07/18 17:18:52;;;;;;;25.02;11.32;;;19.00;99.90;;;;;;4855593;29;20446;-96
2021/07/18 17:21:20;;;;;;;17.00;11.30;;;18.90;99.90;;;;;;4835760;29;20978;-96
2021/07/18 17:23:47;;;;;;;15.88;11.13;;;18.80;99.90;;;;;;4844661;29;20446;-95
2021/07/18 17:26:25;;;;;;;17.90;10.93;;;18.70;99.90;;;;;;4839344;29;20444;-95
2021/07/18 17:29:17;;;;;;;15.30;10.65;;;18.70;99.90;;;;;;4838437;29;20444;-95
2021/07/18 17:48:41;;;;;;;15.57;9.82;;;18.70;99.90;;;;;;4858861;29;20534;-93
2021/07/18 17:51:08;;;;;;;17.05;9.65;;;18.80;99.90;;;;;;4846208;29;20426;-92
2021/07/18 17:53:35;;;;;;;15.77;8.48;;;19.10;99.90;;;;;;4846188;29;20437;-93
2021/07/18 17:56:02;;;;;;;12.03;7.63;;;19.40;99.90;;;;;;4847112;29;20802;-92
